Time;durP1;ratioP1;P1;durP2;ratioP2;P2;SDS_P1;SDS_P2;PMS_P1;PMS_P2;Temp;Humidity;BMP_temperature;BMP_pressure;BME280_temperature;BME280_humidity;BME280_pressure;Samples;Min_cycle;Max_cycle;Signal;HPM_P1;HPM_P2
2022/02/24 00:01:09;;;;;;;19.03;6.93;;;;;;;;;;5011927;28;20287;-78
2022/02/24 00:03:36;;;;;;;20.23;7.20;;;;;;;;;;4999593;28;20539;-78
2022/02/24 00:06:05;;;;;;;22.30;7.33;;;;;;;;;;5008749;28;20268;-77
2022/02/24 00:08:32;;;;;;;21.90;7.17;;;;;;;;;;4994060;28;20229;-77
2022/02/24 00:10:59;;;;;;;22.97;7.00;;;;;;;;;;4997504;28;20284;-77
2022/02/24 00:13:26;;;;;;;17.37;7.10;;;;;;;;;;5005206;28;20275;-77
2022/02/24 00:15:54;;;;;;;24.43;7.47;;;;;;;;;;5002360;28;20316;-77
2022/02/24 00:18:21;;;;;;;20.80;7.17;;;;;;;;;;5011736;28;20236;-77
2022/02/24 00:20:48;;;;;;;21.47;6.90;;;;;;;;;;5011600;28;20269;-77
2022/02/24 00:23:17;;;;;;;20.27;6.97;;;;;;;;;;4999868;28;20586;-77
2022/02/24 00:25:44;;;;;;;22.13;7.10;;;;;;;;;;5004492;28;20225;-77
2022/02/24 00:28:11;;;;;;;24.83;6.80;;;;;;;;;;5015008;28;20280;-77
2022/02/24 00:30:38;;;;;;;19.80;7.00;;;;;;;;;;4999811;28;20248;-77
2022/02/24 00:33:05;;;;;;;20.43;6.80;;;;;;;;;;4995437;28;20244;-77
2022/02/24 00:35:32;;;;;;;18.87;6.93;;;;;;;;;;4995269;28;20264;-76
2022/02/24 00:38:00;;;;;;;19.07;6.27;;;;;;;;;;4997526;28;20233;-76
2022/02/24 00:40:28;;;;;;;18.90;6.87;;;;;;;;;;5004558;28;20228;-77
2022/02/24 00:42:55;;;;;;;19.83;5.90;;;;;;;;;;5008303;28;20284;-76
2022/02/24 00:45:23;;;;;;;16.60;6.47;;;;;;;;;;5005490;28;20295;-78
2022/02/24 00:47:50;;;;;;;22.83;6.60;;;;;;;;;;5009651;28;20291;-78
2022/02/24 00:50:17;;;;;;;19.07;6.40;;;;;;;;;;5004732;28;20205;-75
2022/02/24 00:52:44;;;;;;;17.07;6.33;;;;;;;;;;4999678;28;20692;-74
2022/02/24 00:55:11;;;;;;;20.20;6.00;;;;;;;;;;5000348;28;20249;-76
2022/02/24 00:57:40;;;;;;;16.93;6.37;;;;;;;;;;4995459;28;20324;-77
2022/02/24 01:00:08;;;;;;;17.73;6.20;;;;;;;;;;5009494;28;20245;-73
2022/02/24 01:02:35;;;;;;;18.77;5.73;;;;;;;;;;5013232;28;20243;-74
2022/02/24 01:05:02;;;;;;;16.53;6.33;;;;;;;;;;5007154;28;20281;-76
2022/02/24 01:07:29;;;;;;;17.67;6.73;;;;;;;;;;5000793;28;20751;-77
2022/02/24 01:09:57;;;;;;;19.77;6.27;;;;;;;;;;5013182;28;20279;-76
2022/02/24 01:12:24;;;;;;;20.17;6.17;;;;;;;;;;5013659;28;20248;-74
2022/02/24 01:14:53;;;;;;;15.83;6.50;;;;;;;;;;5013748;28;20201;-75
2022/02/24 01:17:20;;;;;;;17.50;5.97;;;;;;;;;;5009635;28;20196;-76
2022/02/24 01:19:48;;;;;;;18.80;6.30;;;;;;;;;;5014121;28;20197;-76
2022/02/24 01:22:16;;;;;;;19.60;6.13;;;;;;;;;;5014327;28;20209;-73
2022/02/24 01:24:43;;;;;;;17.83;6.47;;;;;;;;;;5012009;28;20201;-76
2022/02/24 01:27:10;;;;;;;19.00;6.10;;;;;;;;;;5012390;28;20201;-76
2022/02/24 01:29:37;;;;;;;20.70;6.80;;;;;;;;;;5008608;28;20251;-76
2022/02/24 01:32:06;;;;;;;17.53;6.20;;;;;;;;;;5006083;28;20321;-76
2022/02/24 01:34:34;;;;;;;17.10;6.57;;;;;;;;;;4996671;28;20233;-76
2022/02/24 01:37:01;;;;;;;17.77;6.13;;;;;;;;;;4993011;28;20250;-75
2022/02/24 01:39:28;;;;;;;19.17;6.77;;;;;;;;;;4997363;28;20229;-75
2022/02/24 01:41:55;;;;;;;20.00;6.70;;;;;;;;;;5006332;28;20240;-75
2022/02/24 01:44:23;;;;;;;17.97;6.17;;;;;;;;;;5011363;28;20197;-74
2022/02/24 01:46:51;;;;;;;18.67;6.40;;;;;;;;;;5012391;28;20218;-75
2022/02/24 01:49:22;;;;;;;18.93;6.10;;;;;;;;;;5013417;28;20232;-75
2022/02/24 01:51:49;;;;;;;17.50;6.17;;;;;;;;;;5000513;28;20653;-76
2022/02/24 01:54:17;;;;;;;18.13;6.33;;;;;;;;;;5008690;28;20270;-75
2022/02/24 01:56:44;;;;;;;21.53;5.33;;;;;;;;;;5013465;28;20304;-75
2022/02/24 01:59:11;;;;;;;14.73;5.70;;;;;;;;;;5003755;28;20327;-75
2022/02/24 02:01:38;;;;;;;15.80;5.77;;;;;;;;;;5006744;28;20194;-75
2022/02/24 02:04:06;;;;;;;20.30;5.93;;;;;;;;;;5008318;28;20288;-75
2022/02/24 02:06:37;;;;;;;19.90;5.83;;;;;;;;;;5013375;28;20228;-75
2022/02/24 02:09:05;;;;;;;16.93;5.63;;;;;;;;;;5013040;28;20197;-75
2022/02/24 02:11:32;;;;;;;12.60;5.13;;;;;;;;;;5012022;28;20288;-75
2022/02/24 02:13:59;;;;;;;15.07;4.93;;;;;;;;;;5012650;28;20233;-75
2022/02/24 02:16:26;;;;;;;14.57;5.00;;;;;;;;;;5011471;28;20264;-76
2022/02/24 02:18:53;;;;;;;18.13;5.00;;;;;;;;;;5013133;28;20231;-75
2022/02/24 02:21:22;;;;;;;15.83;5.03;;;;;;;;;;5012260;28;20233;-75
2022/02/24 02:23:49;;;;;;;19.93;5.17;;;;;;;;;;5013084;28;20232;-75
2022/02/24 02:26:16;;;;;;;15.03;4.97;;;;;;;;;;5012222;28;20283;-75
2022/02/24 02:28:43;;;;;;;19.60;5.63;;;;;;;;;;5012678;28;20239;-75
2022/02/24 02:31:11;;;;;;;14.13;4.37;;;;;;;;;;5001523;28;20269;-76
2022/02/24 02:33:38;;;;;;;15.47;5.23;;;;;;;;;;5012398;28;20210;-75
2022/02/24 02:36:05;;;;;;;11.10;4.30;;;;;;;;;;5012294;28;20227;-75
2022/02/24 02:38:34;;;;;;;14.10;4.80;;;;;;;;;;5007546;28;20276;-75
2022/02/24 02:41:01;;;;;;;12.33;4.00;;;;;;;;;;5012135;28;20558;-75
2022/02/24 02:43:28;;;;;;;13.03;4.60;;;;;;;;;;5012203;28;20633;-75
2022/02/24 02:45:55;;;;;;;16.63;5.27;;;;;;;;;;5012368;28;20606;-75
2022/02/24 02:48:22;;;;;;;14.63;4.50;;;;;;;;;;5012328;28;20619;-76
2022/02/24 02:50:49;;;;;;;15.33;4.67;;;;;;;;;;5011349;28;20246;-75
2022/02/24 02:53:17;;;;;;;14.63;4.67;;;;;;;;;;5000899;28;20300;-75
2022/02/24 02:55:45;;;;;;;13.83;4.67;;;;;;;;;;5006870;28;20617;-75
2022/02/24 02:58:12;;;;;;;11.40;4.20;;;;;;;;;;5011969;28;20355;-76
2022/02/24 03:00:40;;;;;;;16.20;4.37;;;;;;;;;;4993336;28;20293;-75
2022/02/24 03:03:07;;;;;;;16.27;4.23;;;;;;;;;;4992795;28;20209;-75
2022/02/24 03:05:35;;;;;;;12.73;4.30;;;;;;;;;;5002351;28;20204;-76
2022/02/24 03:08:02;;;;;;;16.90;3.93;;;;;;;;;;5011965;28;20578;-75
2022/02/24 03:10:29;;;;;;;13.47;4.00;;;;;;;;;;4999179;28;20289;-75
2022/02/24 03:12:58;;;;;;;15.00;3.70;;;;;;;;;;5004453;28;20240;-76
2022/02/24 03:15:25;;;;;;;15.07;3.90;;;;;;;;;;4996655;28;20615;-75
2022/02/24 03:17:52;;;;;;;14.00;3.57;;;;;;;;;;5004753;28;20247;-75
2022/02/24 03:20:20;;;;;;;11.80;3.30;;;;;;;;;;5011369;28;20707;-75
2022/02/24 03:22:47;;;;;;;16.27;3.80;;;;;;;;;;5011425;28;20289;-75
2022/02/24 03:25:14;;;;;;;11.23;3.23;;;;;;;;;;5000351;28;20237;-75
2022/02/24 03:27:41;;;;;;;17.43;3.50;;;;;;;;;;4991653;28;20736;-75
2022/02/24 03:30:10;;;;;;;15.10;3.60;;;;;;;;;;5008787;28;20224;-75
2022/02/24 03:32:38;;;;;;;13.43;3.67;;;;;;;;;;5012066;28;20247;-76
2022/02/24 03:35:05;;;;;;;17.70;3.73;;;;;;;;;;5011890;28;20236;-75
2022/02/24 03:37:33;;;;;;;16.03;3.47;;;;;;;;;;5011802;28;20262;-74
2022/02/24 03:40:00;;;;;;;13.37;3.77;;;;;;;;;;4999625;28;20232;-76
2022/02/24 03:42:28;;;;;;;17.07;3.93;;;;;;;;;;4991992;28;20294;-75
2022/02/24 03:44:56;;;;;;;14.10;3.57;;;;;;;;;;5001813;28;20271;-75
2022/02/24 03:47:24;;;;;;;10.53;3.57;;;;;;;;;;5011734;28;20232;-75
2022/02/24 03:49:52;;;;;;;14.13;4.03;;;;;;;;;;5010233;28;20735;-75
2022/02/24 03:52:20;;;;;;;15.13;3.57;;;;;;;;;;5010760;28;20236;-75
2022/02/24 03:54:47;;;;;;;12.83;3.70;;;;;;;;;;5011258;28;20232;-76
2022/02/24 03:57:15;;;;;;;14.13;3.67;;;;;;;;;;4996513;28;20861;-74
2022/02/24 03:59:43;;;;;;;16.90;3.43;;;;;;;;;;4993856;28;20720;-75
2022/02/24 04:02:10;;;;;;;15.37;3.63;;;;;;;;;;5011133;28;20617;-75
2022/02/24 04:04:39;;;;;;;8.93;2.97;;;;;;;;;;4997921;28;20255;-75
2022/02/24 04:07:06;;;;;;;18.60;3.83;;;;;;;;;;5011986;28;20255;-75
2022/02/24 04:09:35;;;;;;;13.17;3.33;;;;;;;;;;5015121;28;20237;-75
2022/02/24 04:12:02;;;;;;;11.63;3.40;;;;;;;;;;5014755;28;20201;-75
2022/02/24 04:14:29;;;;;;;14.20;3.30;;;;;;;;;;5015053;28;20200;-74
2022/02/24 04:16:59;;;;;;;10.80;3.70;;;;;;;;;;5015186;28;20271;-75
2022/02/24 04:19:26;;;;;;;16.90;3.93;;;;;;;;;;5014098;28;20281;-75
2022/02/24 04:21:54;;;;;;;14.67;3.73;;;;;;;;;;5015130;28;20228;-75
2022/02/24 04:24:22;;;;;;;15.33;4.10;;;;;;;;;;5014903;28;20614;-75
2022/02/24 04:26:49;;;;;;;15.80;4.53;;;;;;;;;;5014527;28;20276;-75
2022/02/24 04:29:16;;;;;;;15.50;3.97;;;;;;;;;;5014361;28;20270;-76
2022/02/24 04:31:43;;;;;;;16.40;3.50;;;;;;;;;;5014906;28;20277;-76
2022/02/24 04:34:10;;;;;;;19.13;3.83;;;;;;;;;;5012698;28;20291;-75
2022/02/24 04:36:37;;;;;;;13.80;4.00;;;;;;;;;;5014499;28;20716;-76
2022/02/24 04:39:06;;;;;;;13.10;3.77;;;;;;;;;;5015033;28;20243;-76
2022/02/24 04:41:33;;;;;;;13.87;3.83;;;;;;;;;;5013861;28;20268;-75
2022/02/24 04:44:00;;;;;;;14.87;3.53;;;;;;;;;;5006091;28;20201;-75
2022/02/24 04:46:27;;;;;;;14.60;4.00;;;;;;;;;;4998624;28;20296;-75
2022/02/24 04:48:55;;;;;;;16.63;3.87;;;;;;;;;;4995768;28;20210;-75
2022/02/24 04:51:22;;;;;;;11.50;3.40;;;;;;;;;;5007036;28;20270;-75
2022/02/24 04:53:49;;;;;;;20.13;4.90;;;;;;;;;;5004246;28;20624;-76
2022/02/24 04:56:17;;;;;;;15.53;4.30;;;;;;;;;;5014230;28;20260;-75
2022/02/24 04:58:45;;;;;;;16.80;4.50;;;;;;;;;;5013605;28;20228;-76
2022/02/24 05:01:12;;;;;;;19.20;4.27;;;;;;;;;;5005518;28;20308;-76
2022/02/24 05:03:39;;;;;;;16.27;4.07;;;;;;;;;;5014647;28;20627;-75
2022/02/24 05:06:06;;;;;;;14.80;4.87;;;;;;;;;;5011416;28;20282;-76
2022/02/24 05:08:33;;;;;;;18.50;4.33;;;;;;;;;;5005901;28;20205;-75
2022/02/24 05:11:01;;;;;;;11.73;3.97;;;;;;;;;;5012522;28;20247;-75
2022/02/24 05:13:29;;;;;;;15.87;4.20;;;;;;;;;;5014031;28;20240;-75
2022/02/24 05:15:57;;;;;;;12.57;4.40;;;;;;;;;;5010922;28;20206;-75
2022/02/24 05:18:24;;;;;;;14.27;3.87;;;;;;;;;;4994713;28;20296;-75
2022/02/24 05:20:51;;;;;;;16.03;3.70;;;;;;;;;;4994673;28;20233;-75
2022/02/24 05:23:18;;;;;;;13.97;3.80;;;;;;;;;;4994402;28;20213;-75
2022/02/24 05:25:45;;;;;;;11.60;2.83;;;;;;;;;;5008384;28;20222;-75
2022/02/24 05:28:13;;;;;;;12.10;3.20;;;;;;;;;;5004478;28;20280;-76
2022/02/24 05:30:42;;;;;;;13.50;3.43;;;;;;;;;;5007007;28;20767;-75
2022/02/24 05:33:10;;;;;;;12.03;3.13;;;;;;;;;;4994322;28;20288;-75
2022/02/24 05:35:37;;;;;;;10.40;3.33;;;;;;;;;;5008152;28;20231;-75
2022/02/24 05:38:04;;;;;;;11.17;3.73;;;;;;;;;;4994287;28;20264;-75
2022/02/24 05:40:32;;;;;;;17.83;4.17;;;;;;;;;;5006421;28;20232;-75
2022/02/24 05:43:00;;;;;;;17.67;4.23;;;;;;;;;;5001684;28;20660;-75
2022/02/24 05:45:27;;;;;;;17.33;4.57;;;;;;;;;;5013416;28;20255;-76
2022/02/24 05:47:56;;;;;;;18.50;5.00;;;;;;;;;;5005278;28;20275;-76
2022/02/24 05:50:23;;;;;;;19.90;5.77;;;;;;;;;;5001876;28;20248;-75
2022/02/24 05:52:50;;;;;;;19.43;5.23;;;;;;;;;;5003038;28;20293;-75
2022/02/24 05:55:17;;;;;;;24.30;6.33;;;;;;;;;;5011466;28;20742;-75
2022/02/24 05:57:44;;;;;;;16.37;5.80;;;;;;;;;;5016211;28;20315;-76
2022/02/24 06:00:12;;;;;;;18.40;6.03;;;;;;;;;;5001319;28;20213;-75
2022/02/24 06:02:40;;;;;;;20.23;7.07;;;;;;;;;;5009544;28;20243;-75
2022/02/24 06:05:16;;;;;;;17.90;6.07;;;;;;;;;;4995609;28;20213;-76
2022/02/24 06:07:43;;;;;;;18.73;6.37;;;;;;;;;;4996689;28;20201;-77
2022/02/24 06:10:11;;;;;;;17.53;6.20;;;;;;;;;;5000482;28;20291;-76
2022/02/24 06:12:38;;;;;;;21.00;6.60;;;;;;;;;;5009464;28;20284;-77
2022/02/24 06:15:06;;;;;;;16.80;6.77;;;;;;;;;;5008150;28;20288;-76
2022/02/24 06:17:33;;;;;;;19.47;7.27;;;;;;;;;;5005263;28;20307;-76
2022/02/24 06:20:00;;;;;;;22.43;8.00;;;;;;;;;;5001988;28;20283;-76
2022/02/24 06:22:29;;;;;;;25.17;7.63;;;;;;;;;;5007270;28;20288;-76
2022/02/24 06:24:56;;;;;;;23.70;7.30;;;;;;;;;;4993696;28;20316;-77
2022/02/24 06:27:23;;;;;;;17.90;7.60;;;;;;;;;;4993442;28;20193;-77
2022/02/24 06:29:50;;;;;;;17.40;7.13;;;;;;;;;;4999531;28;20244;-77
2022/02/24 06:32:17;;;;;;;22.60;6.93;;;;;;;;;;4993880;28;20304;-77
2022/02/24 06:34:45;;;;;;;23.00;7.50;;;;;;;;;;5003262;28;20329;-79
2022/02/24 06:37:12;;;;;;;21.40;7.00;;;;;;;;;;5005026;28;20229;-78
2022/02/24 06:39:42;;;;;;;21.77;7.10;;;;;;;;;;5001837;28;20293;-77
2022/02/24 06:42:09;;;;;;;22.27;7.17;;;;;;;;;;4992191;28;20244;-78
2022/02/24 06:44:36;;;;;;;24.83;7.63;;;;;;;;;;5001623;28;20259;-77
2022/02/24 06:47:04;;;;;;;17.97;6.60;;;;;;;;;;4998951;28;20277;-76
2022/02/24 06:49:31;;;;;;;17.80;7.33;;;;;;;;;;5002774;28;20237;-78
2022/02/24 06:51:58;;;;;;;22.83;7.27;;;;;;;;;;5010134;28;20316;-77
2022/02/24 06:54:26;;;;;;;18.97;7.77;;;;;;;;;;5004463;28;21041;-78
2022/02/24 06:56:54;;;;;;;22.67;7.70;;;;;;;;;;5001164;28;20232;-77
2022/02/24 06:59:22;;;;;;;18.67;7.30;;;;;;;;;;5009378;28;20255;-75
2022/02/24 07:01:49;;;;;;;20.93;7.67;;;;;;;;;;4997525;28;20208;-75
2022/02/24 07:04:17;;;;;;;21.03;7.47;;;;;;;;;;5011222;28;20250;-75
2022/02/24 07:06:47;;;;;;;19.43;7.47;;;;;;;;;;4999908;28;20280;-76
2022/02/24 07:09:14;;;;;;;24.27;7.83;;;;;;;;;;5003445;28;20204;-75
2022/02/24 07:11:42;;;;;;;22.63;7.73;;;;;;;;;;5001849;28;20228;-75
2022/02/24 07:14:10;;;;;;;21.53;7.30;;;;;;;;;;5000164;28;20193;-76
2022/02/24 07:16:37;;;;;;;24.60;8.30;;;;;;;;;;5005954;28;20239;-76
2022/02/24 07:19:05;;;;;;;19.17;8.60;;;;;;;;;;5006461;28;20224;-75
2022/02/24 07:21:32;;;;;;;26.97;8.90;;;;;;;;;;5001822;28;20205;-76
2022/02/24 07:23:59;;;;;;;19.77;8.13;;;;;;;;;;5003655;28;20231;-75
2022/02/24 07:26:27;;;;;;;21.00;7.33;;;;;;;;;;5000905;28;20723;-76
2022/02/24 07:28:54;;;;;;;21.07;8.33;;;;;;;;;;5011542;28;20205;-76
2022/02/24 07:31:23;;;;;;;24.23;8.00;;;;;;;;;;5005561;28;20243;-75
2022/02/24 07:33:50;;;;;;;21.03;7.77;;;;;;;;;;5007891;28;20317;-75
2022/02/24 07:36:18;;;;;;;22.67;7.93;;;;;;;;;;5006201;28;20292;-76
2022/02/24 07:38:45;;;;;;;26.13;7.70;;;;;;;;;;5012997;28;20358;-75
2022/02/24 07:41:12;;;;;;;17.90;7.77;;;;;;;;;;5012659;28;20229;-75
2022/02/24 07:43:40;;;;;;;23.07;7.73;;;;;;;;;;5004905;28;20287;-75
2022/02/24 07:46:07;;;;;;;18.07;7.47;;;;;;;;;;5003163;28;20260;-75
2022/02/24 07:48:35;;;;;;;15.27;6.97;;;;;;;;;;5000190;28;20661;-75
2022/02/24 07:51:02;;;;;;;19.40;8.27;;;;;;;;;;5003351;28;20237;-75
2022/02/24 07:53:30;;;;;;;21.37;7.90;;;;;;;;;;5013069;28;20298;-75
2022/02/24 07:55:57;;;;;;;19.13;6.70;;;;;;;;;;5015158;28;20266;-75
2022/02/24 07:58:24;;;;;;;13.47;5.73;;;;;;;;;;5010307;28;20316;-75
2022/02/24 08:00:52;;;;;;;12.77;5.10;;;;;;;;;;4997255;28;20301;-76
2022/02/24 08:03:19;;;;;;;8.67;4.37;;;;;;;;;;4995651;28;20348;-76
2022/02/24 08:05:47;;;;;;;11.10;4.27;;;;;;;;;;4996867;28;20198;-76
2022/02/24 08:08:14;;;;;;;8.83;3.73;;;;;;;;;;5013044;28;20292;-76
2022/02/24 08:10:42;;;;;;;11.97;3.47;;;;;;;;;;5013454;28;20232;-75
2022/02/24 08:13:09;;;;;;;11.57;3.53;;;;;;;;;;5011830;28;20240;-76
2022/02/24 08:15:36;;;;;;;9.87;3.70;;;;;;;;;;5003533;28;20244;-76
2022/02/24 08:18:03;;;;;;;8.27;3.33;;;;;;;;;;5002869;28;20305;-76
2022/02/24 08:20:31;;;;;;;11.38;3.10;;;;;;;;;;5006363;28;20293;-76
2022/02/24 08:23:01;;;;;;;8.05;3.00;;;;;;;;;;5005258;28;20252;-76
2022/02/24 08:25:29;;;;;;;9.82;2.88;;;;;;;;;;5000456;28;20212;-76
2022/02/24 08:27:56;;;;;;;9.00;2.55;;;;;;;;;;5004385;28;20248;-76
2022/02/24 08:30:24;;;;;;;9.45;2.63;;;;;;;;;;5001970;28;20205;-76
2022/02/24 08:32:52;;;;;;;8.35;2.80;;;;;;;;;;5005214;28;20284;-76
2022/02/24 08:35:20;;;;;;;7.18;2.33;;;;;;;;;;4999950;28;20662;-76
2022/02/24 08:37:48;;;;;;;6.57;2.28;;;;;;;;;;5007082;28;20227;-76
2022/02/24 08:40:17;;;;;;;7.22;2.38;;;;;;;;;;5009401;28;20231;-76
2022/02/24 08:42:45;;;;;;;6.45;2.63;;;;;;;;;;5007120;28;20283;-76
2022/02/24 08:45:13;;;;;;;8.15;2.22;;;;;;;;;;4999449;28;20240;-76
2022/02/24 08:47:41;;;;;;;7.65;2.40;;;;;;;;;;5011711;28;20272;-76
2022/02/24 08:50:10;;;;;;;7.20;2.28;;;;;;;;;;4996595;28;20252;-76
2022/02/24 08:52:37;;;;;;;6.65;2.20;;;;;;;;;;4995685;28;20197;-77
2022/02/24 08:55:04;;;;;;;5.18;1.95;;;;;;;;;;4999917;28;20237;-76
2022/02/24 08:57:34;;;;;;;5.60;2.17;;;;;;;;;;5001744;28;20252;-77
2022/02/24 09:00:01;;;;;;;5.45;2.17;;;;;;;;;;5002244;28;20320;-78
2022/02/24 09:02:29;;;;;;;3.95;1.50;;;;;;;;;;5013032;28;20201;-78
2022/02/24 09:04:56;;;;;;;6.97;1.70;;;;;;;;;;5009627;28;20201;-78
2022/02/24 09:07:23;;;;;;;8.20;2.00;;;;;;;;;;5002603;28;20688;-78
2022/02/24 09:09:51;;;;;;;6.85;1.73;;;;;;;;;;5006324;28;20229;-78
2022/02/24 09:12:18;;;;;;;6.72;1.70;;;;;;;;;;5005584;28;20229;-79
2022/02/24 09:14:46;;;;;;;4.50;1.47;;;;;;;;;;5006774;28;20237;-78
2022/02/24 09:17:13;;;;;;;4.17;1.40;;;;;;;;;;5013249;28;20237;-78
2022/02/24 09:19:43;;;;;;;6.33;1.87;;;;;;;;;;5013283;28;20280;-78
2022/02/24 09:22:11;;;;;;;8.43;1.90;;;;;;;;;;5005817;28;20194;-78
2022/02/24 09:24:39;;;;;;;7.90;1.90;;;;;;;;;;4995803;28;20202;-78
2022/02/24 09:27:06;;;;;;;6.80;1.83;;;;;;;;;;5005363;28;20229;-78
2022/02/24 09:29:34;;;;;;;6.90;2.30;;;;;;;;;;5004099;28;20317;-78
2022/02/24 09:32:02;;;;;;;8.77;1.50;;;;;;;;;;5000223;28;20210;-78
2022/02/24 09:34:30;;;;;;;6.13;1.80;;;;;;;;;;5002111;28;20297;-78
2022/02/24 09:36:57;;;;;;;7.50;1.70;;;;;;;;;;5012862;28;20684;-78
2022/02/24 09:39:24;;;;;;;6.37;1.70;;;;;;;;;;5013291;28;20424;-78
2022/02/24 09:41:51;;;;;;;6.70;1.63;;;;;;;;;;5002925;28;20245;-78
2022/02/24 09:44:18;;;;;;;6.70;1.73;;;;;;;;;;5006175;28;20244;-78
2022/02/24 09:46:46;;;;;;;7.17;2.07;;;;;;;;;;5003879;28;20228;-78
2022/02/24 09:49:18;;;;;;;9.27;1.93;;;;;;;;;;5001487;28;20193;-78
2022/02/24 09:51:45;;;;;;;6.37;1.60;;;;;;;;;;5006605;28;20546;-78
2022/02/24 09:54:13;;;;;;;7.17;1.67;;;;;;;;;;5003518;28;20272;-78
2022/02/24 09:56:42;;;;;;;6.33;1.40;;;;;;;;;;5001373;28;20577;-78
2022/02/24 09:59:12;;;;;;;5.80;1.57;;;;;;;;;;5005626;28;20229;-78
2022/02/24 10:01:40;;;;;;;9.43;1.40;;;;;;;;;;4997031;28;20209;-77
2022/02/24 10:04:09;;;;;;;7.17;1.77;;;;;;;;;;5003858;28;20197;-79
2022/02/24 10:06:38;;;;;;;4.63;1.20;;;;;;;;;;5010632;28;20197;-79
2022/02/24 10:09:07;;;;;;;6.57;1.47;;;;;;;;;;4998673;28;20284;-79
2022/02/24 10:11:35;;;;;;;4.97;1.60;;;;;;;;;;5000873;28;20198;-79
2022/02/24 10:14:06;;;;;;;5.80;1.67;;;;;;;;;;4992916;28;20198;-79
2022/02/24 10:16:35;;;;;;;8.47;1.67;;;;;;;;;;5012320;28;20201;-78
2022/02/24 10:19:12;;;;;;;8.33;1.53;;;;;;;;;;5005828;28;20225;-79
2022/02/24 10:21:41;;;;;;;9.60;2.03;;;;;;;;;;4997046;28;20199;-79
2022/02/24 10:24:23;;;;;;;6.53;2.47;;;;;;;;;;5001688;28;20204;-79
2022/02/24 10:26:51;;;;;;;8.07;2.40;;;;;;;;;;4992975;28;20207;-79
2022/02/24 10:29:22;;;;;;;6.93;3.00;;;;;;;;;;5003337;28;20201;-80
2022/02/24 10:31:50;;;;;;;7.63;1.87;;;;;;;;;;5007967;28;20209;-78
2022/02/24 10:34:19;;;;;;;5.50;1.40;;;;;;;;;;5010653;28;20287;-79
2022/02/24 10:36:47;;;;;;;8.10;2.03;;;;;;;;;;5012206;28;20212;-80
2022/02/24 10:39:17;;;;;;;7.30;1.77;;;;;;;;;;5009983;28;20271;-79
2022/02/24 10:41:45;;;;;;;5.00;1.50;;;;;;;;;;4998388;28;20743;-79
2022/02/24 10:44:17;;;;;;;5.87;1.37;;;;;;;;;;4993388;28;20557;-79
2022/02/24 10:46:45;;;;;;;9.37;2.20;;;;;;;;;;4994881;28;20673;-79
2022/02/24 10:49:15;;;;;;;6.23;1.27;;;;;;;;;;5012007;28;20197;-79
2022/02/24 10:51:43;;;;;;;7.53;1.70;;;;;;;;;;5005571;28;20223;-79
2022/02/24 10:54:12;;;;;;;5.53;1.40;;;;;;;;;;5012121;28;20296;-80
2022/02/24 10:56:40;;;;;;;4.37;1.37;;;;;;;;;;5003264;28;20289;-79
2022/02/24 10:59:08;;;;;;;9.83;1.60;;;;;;;;;;5002827;28;20249;-80
2022/02/24 11:01:36;;;;;;;8.67;1.60;;;;;;;;;;5008419;28;20243;-80
2022/02/24 11:04:04;;;;;;;6.97;2.00;;;;;;;;;;5000192;28;20237;-79
2022/02/24 11:06:33;;;;;;;5.90;1.80;;;;;;;;;;4992381;28;20237;-79
2022/02/24 11:09:00;;;;;;;6.87;2.03;;;;;;;;;;5010173;28;20791;-79
2022/02/24 11:11:29;;;;;;;5.63;1.40;;;;;;;;;;5011983;28;20229;-79
2022/02/24 11:13:58;;;;;;;2.57;1.20;;;;;;;;;;4994636;28;20240;-79
2022/02/24 11:16:25;;;;;;;3.17;1.03;;;;;;;;;;5011807;28;20208;-79
2022/02/24 11:18:53;;;;;;;2.77;0.90;;;;;;;;;;5012213;28;20275;-79
2022/02/24 11:21:21;;;;;;;2.67;0.90;;;;;;;;;;5010846;28;20240;-79
2022/02/24 11:23:49;;;;;;;4.40;0.87;;;;;;;;;;5012315;28;20635;-79
2022/02/24 11:26:23;;;;;;;3.60;0.87;;;;;;;;;;5011869;28;20284;-78
2022/02/24 11:28:53;;;;;;;3.50;0.97;;;;;;;;;;5011962;28;20197;-79
2022/02/24 11:31:24;;;;;;;2.50;0.80;;;;;;;;;;5010928;28;20251;-79
2022/02/24 11:33:55;;;;;;;2.63;0.93;;;;;;;;;;5011795;28;20292;-79
2022/02/24 11:36:22;;;;;;;3.23;0.80;;;;;;;;;;5011519;28;20620;-78
2022/02/24 11:39:12;;;;;;;3.60;1.00;;;;;;;;;;5011538;28;20252;-79
2022/02/24 11:41:52;;;;;;;3.70;0.77;;;;;;;;;;5011726;28;20629;-79
2022/02/24 11:44:38;;;;;;;4.37;1.00;;;;;;;;;;5007435;28;20216;-79
2022/02/24 11:47:06;;;;;;;2.37;0.60;;;;;;;;;;5011265;28;20208;-79
2022/02/24 11:49:51;;;;;;;3.77;0.90;;;;;;;;;;4998995;28;20277;-79
2022/02/24 11:52:22;;;;;;;4.90;0.93;;;;;;;;;;4999280;28;20212;-79
2022/02/24 11:54:49;;;;;;;2.70;1.00;;;;;;;;;;5011863;28;20742;-79
2022/02/24 11:57:27;;;;;;;3.50;0.80;;;;;;;;;;5003753;28;20289;-82
2022/02/24 11:59:56;;;;;;;2.67;0.87;;;;;;;;;;5010740;28;20224;-77
2022/02/24 12:02:40;;;;;;;6.50;1.17;;;;;;;;;;5006587;28;20205;-79
2022/02/24 12:05:17;;;;;;;3.03;0.90;;;;;;;;;;5009286;28;20201;-79
2022/02/24 12:07:59;;;;;;;2.73;0.80;;;;;;;;;;4994330;28;20206;-79
2022/02/24 12:10:39;;;;;;;3.80;1.20;;;;;;;;;;5009588;28;20275;-79
2022/02/24 12:13:21;;;;;;;5.67;0.80;;;;;;;;;;5002868;28;20672;-79
2022/02/24 12:16:03;;;;;;;3.93;1.10;;;;;;;;;;4991880;28;20233;-79
2022/02/24 12:18:39;;;;;;;5.33;1.23;;;;;;;;;;5001991;28;20300;-79
2022/02/24 12:21:21;;;;;;;5.00;0.90;;;;;;;;;;5006398;28;20695;-79
2022/02/24 12:23:49;;;;;;;4.43;1.10;;;;;;;;;;4998935;28;20735;-79
2022/02/24 12:26:18;;;;;;;6.70;1.40;;;;;;;;;;5007665;28;20203;-79
2022/02/24 12:28:45;;;;;;;6.47;1.60;;;;;;;;;;5003680;28;20189;-80
2022/02/24 12:31:20;;;;;;;6.40;1.63;;;;;;;;;;5001559;28;20248;-79
2022/02/24 12:33:48;;;;;;;5.47;1.30;;;;;;;;;;5000623;28;20283;-80
2022/02/24 12:36:15;;;;;;;4.73;1.07;;;;;;;;;;4999607;28;20236;-79
2022/02/24 12:38:44;;;;;;;2.90;0.83;;;;;;;;;;5009654;28;20235;-78
2022/02/24 12:41:11;;;;;;;4.43;0.77;;;;;;;;;;5002069;28;20225;-79
2022/02/24 12:43:43;;;;;;;3.27;0.83;;;;;;;;;;5005954;28;20229;-78
2022/02/24 12:46:13;;;;;;;6.57;1.00;;;;;;;;;;4999522;28;20235;-79
2022/02/24 12:48:41;;;;;;;3.57;1.27;;;;;;;;;;5011330;28;20235;-78
2022/02/24 12:51:10;;;;;;;5.73;1.17;;;;;;;;;;5002418;28;20201;-79
2022/02/24 12:53:38;;;;;;;1.97;0.73;;;;;;;;;;5000687;28;20198;-80
2022/02/24 12:56:06;;;;;;;4.37;1.00;;;;;;;;;;5010162;28;20208;-79
2022/02/24 12:58:33;;;;;;;4.67;1.30;;;;;;;;;;5013464;28;20688;-79
2022/02/24 13:01:00;;;;;;;7.03;1.10;;;;;;;;;;5000514;28;20232;-79
2022/02/24 13:03:28;;;;;;;5.93;1.20;;;;;;;;;;4996862;28;20280;-78
2022/02/24 13:05:56;;;;;;;6.47;1.53;;;;;;;;;;5011767;28;20200;-79
2022/02/24 13:11:11;;;;;;;6.27;1.23;;;;;;;;;;5010070;28;20211;-79
2022/02/24 13:13:38;;;;;;;7.17;1.53;;;;;;;;;;5007873;28;20233;-77
2022/02/24 13:16:06;;;;;;;5.43;1.33;;;;;;;;;;5006791;28;20305;-77
2022/02/24 13:18:37;;;;;;;4.73;1.20;;;;;;;;;;4996273;28;20226;-76
2022/02/24 13:21:04;;;;;;;5.87;1.53;;;;;;;;;;5008956;28;20228;-77
2022/02/24 13:23:33;;;;;;;7.27;1.60;;;;;;;;;;5007253;28;20205;-77
2022/02/24 13:26:02;;;;;;;5.37;1.30;;;;;;;;;;5001793;28;20295;-77
2022/02/24 13:28:29;;;;;;;4.60;0.90;;;;;;;;;;5006214;28;20232;-76
2022/02/24 13:30:57;;;;;;;5.43;1.30;;;;;;;;;;5003301;28;20284;-76
2022/02/24 13:33:29;;;;;;;5.10;1.07;;;;;;;;;;4998776;28;20229;-76
2022/02/24 13:35:56;;;;;;;7.70;1.40;;;;;;;;;;5001992;28;20202;-77
2022/02/24 13:38:31;;;;;;;8.47;1.27;;;;;;;;;;5000385;28;20304;-76
2022/02/24 13:41:01;;;;;;;6.23;1.40;;;;;;;;;;5003595;28;20238;-76
2022/02/24 13:43:29;;;;;;;4.93;1.00;;;;;;;;;;5005704;28;20224;-77
2022/02/24 13:45:56;;;;;;;4.87;1.13;;;;;;;;;;4995467;28;20202;-76
2022/02/24 13:48:25;;;;;;;6.97;1.13;;;;;;;;;;5001109;28;20284;-76
2022/02/24 13:50:52;;;;;;;7.20;1.00;;;;;;;;;;5003375;28;20748;-76
2022/02/24 13:53:23;;;;;;;5.20;1.23;;;;;;;;;;5003932;28;20292;-76
2022/02/24 13:55:53;;;;;;;4.10;1.20;;;;;;;;;;5004316;28;20197;-80
2022/02/24 13:58:24;;;;;;;5.43;1.20;;;;;;;;;;5011220;28;20319;-80
2022/02/24 14:00:54;;;;;;;5.83;1.27;;;;;;;;;;5010320;28;20205;-80
2022/02/24 14:03:28;;;;;;;8.10;1.20;;;;;;;;;;5002420;28;20202;-80
2022/02/24 14:06:02;;;;;;;5.37;1.50;;;;;;;;;;5001732;28;20256;-80
2022/02/24 14:08:30;;;;;;;5.67;1.10;;;;;;;;;;5006562;28;20193;-81
2022/02/24 14:11:04;;;;;;;8.50;1.57;;;;;;;;;;5010754;28;20207;-81
2022/02/24 14:13:32;;;;;;;9.10;1.50;;;;;;;;;;5000069;28;20288;-80
2022/02/24 14:15:59;;;;;;;6.60;1.27;;;;;;;;;;5006996;28;20229;-80
2022/02/24 14:18:27;;;;;;;7.07;1.50;;;;;;;;;;5006961;28;20281;-80
2022/02/24 14:20:54;;;;;;;8.03;1.80;;;;;;;;;;5004589;28;20308;-80
2022/02/24 14:23:21;;;;;;;7.63;1.73;;;;;;;;;;5003794;28;20201;-80
2022/02/24 14:25:48;;;;;;;8.37;1.57;;;;;;;;;;5002684;28;20281;-80
2022/02/24 14:28:15;;;;;;;5.17;1.47;;;;;;;;;;5005711;28;20288;-80
2022/02/24 14:30:44;;;;;;;7.73;1.53;;;;;;;;;;5013083;28;20235;-80
2022/02/24 14:33:12;;;;;;;5.67;1.37;;;;;;;;;;5008044;28;20239;-80
2022/02/24 14:35:39;;;;;;;7.23;1.50;;;;;;;;;;5011826;28;20613;-80
2022/02/24 14:38:06;;;;;;;7.90;1.20;;;;;;;;;;5007886;28;20255;-80
2022/02/24 14:40:34;;;;;;;4.63;1.07;;;;;;;;;;5000786;28;20292;-81
2022/02/24 14:43:01;;;;;;;5.70;1.07;;;;;;;;;;5012235;28;20301;-81
2022/02/24 14:45:28;;;;;;;6.53;1.27;;;;;;;;;;5009651;28;20301;-81